SV3BEF-4 Korifi GR current weather conditions

sailwx.info

Wind from 210

Air temperature 19.4° C

Last reported at 2020-Oct-26 09:01 UTC.
Time now 2020-Oct-26 09:29 UTC

Location: N 37°40' E 021°26'.
View on Google Maps.

See reports from other nearby stations

  
Tides and Currents Weather Stations Pressure Air Temp Water Temp Dewpoint Dewpoint Depression Visibility Wind Speed Wind Dir Waves Ship Positions
date/time (UTC)wind fromknots sea level pressurealtimeterstation pressurevisibilityair tempwater tempwave heightnotes
2020-Oct-26 09:01 210 19.4
2020-Oct-26 08:56 210 19.4
2020-Oct-26 08:51 210 19.4
2020-Oct-26 08:46 210 18.9
2020-Oct-26 08:41 210 18.9
2020-Oct-26 08:36 210 19.4
2020-Oct-26 08:31 210 19.4
2020-Oct-26 08:26 210 1 gusting 2 18.9
2020-Oct-26 08:21 108 18.9
2020-Oct-26 08:16 108 18.9
2020-Oct-26 08:11 108 18.9
2020-Oct-26 08:06 108 18.3
2020-Oct-26 08:01 108 18.3
2020-Oct-26 07:56 108 18.3
2020-Oct-26 07:51 108 17.8
2020-Oct-26 07:46 108 17.8
2020-Oct-26 07:41 108 17.8
2020-Oct-26 07:36 108 17.8
2020-Oct-26 07:31 108 17.8
2020-Oct-26 07:26 108 17.2
2020-Oct-26 07:21 108 17.2
2020-Oct-26 07:16 108 17.2
2020-Oct-26 07:11 108 16.7
2020-Oct-26 07:06 108 16.7
2020-Oct-26 07:01 108 16.7
2020-Oct-26 06:56 108 16.7
2020-Oct-26 06:51 108 16.1
2020-Oct-26 06:45 108 16.1
2020-Oct-26 06:41 108 16.1
2020-Oct-26 06:36 108 16.1
2020-Oct-26 06:30 108 16.1
2020-Oct-26 06:25 108 16.1
2020-Oct-26 06:20 108 15.6
2020-Oct-26 06:15 108 16.1
2020-Oct-26 06:10 108 15.6
2020-Oct-26 06:05 108 15.6
2020-Oct-26 06:00 108 16.1
2020-Oct-26 05:55 108 15.6
2020-Oct-26 05:50 108 15.6
2020-Oct-26 05:45 108 15.6
2020-Oct-26 05:40 108 15.6
2020-Oct-26 05:35 108 15.0
2020-Oct-26 05:30 108 15.6
2020-Oct-26 05:25 108 15.0
2020-Oct-26 05:20 108 15.6
2020-Oct-26 05:15 108 15.6
2020-Oct-26 05:10 108 15.6
2020-Oct-26 05:05 108 15.6
2020-Oct-26 05:00 108 15.6
2020-Oct-26 04:55 108 15.6
2020-Oct-26 04:50 108 15.6
2020-Oct-26 04:45 108 15.0
2020-Oct-26 04:40 108 15.0
2020-Oct-26 04:35 108 15.0
2020-Oct-26 04:25 108 15.0
2020-Oct-26 04:20 108 15.6
2020-Oct-26 04:15 108 15.0
2020-Oct-26 04:09 108 15.0
2020-Oct-26 04:04 108 15.6
2020-Oct-26 03:59 108 15.6
2020-Oct-26 03:54 108 15.6
2020-Oct-26 00:03
2020-Oct-25 22:02 228
2020-Oct-25 20:01
2020-Oct-25 19:01
2020-Oct-25 18:06
2020-Oct-25 18:01
2020-Oct-25 17:01
2020-Oct-25 16:00 228 20.0
2020-Oct-25 15:20
2020-Oct-25 15:15
2020-Oct-25 15:09
2020-Oct-25 15:04 20.6
2020-Oct-25 14:34 191 2 21.1
2020-Oct-25 14:29 246 21.1
2020-Oct-25 14:24 232 2 21.1
2020-Oct-25 14:19 21.1
2020-Oct-25 14:14 172 21.1
2020-Oct-25 14:09 172 21.1
2020-Oct-25 14:04 172 21.1
2020-Oct-25 13:44 266 21.7
2020-Oct-25 13:39 266 21.1
2020-Oct-25 13:34 219 0 21.7
2020-Oct-25 13:29 214 21.7
2020-Oct-25 13:24 226 21.1
2020-Oct-25 13:19 232 3 21.1
2020-Oct-25 13:14
2020-Oct-25 13:09
2020-Oct-25 13:04
2020-Oct-25 12:59
2020-Oct-25 12:54
2020-Oct-25 12:49
2020-Oct-25 12:44
2020-Oct-25 12:39
2020-Oct-25 12:33
2020-Oct-25 12:28
2020-Oct-25 12:23
2020-Oct-25 12:18
2020-Oct-25 12:13
2020-Oct-25 12:08
2020-Oct-25 12:03
2020-Oct-25 11:58
2020-Oct-25 11:53
2020-Oct-25 11:48
2020-Oct-25 11:43
2020-Oct-25 11:38
2020-Oct-25 11:33
2020-Oct-25 11:28
2020-Oct-25 11:23
2020-Oct-25 11:18
2020-Oct-25 11:13
2020-Oct-25 11:08
2020-Oct-25 11:03
2020-Oct-25 10:58
2020-Oct-25 10:53
2020-Oct-25 10:48
2020-Oct-25 10:43
2020-Oct-25 10:38
2020-Oct-25 10:33
2020-Oct-25 10:28
2020-Oct-25 10:23
2020-Oct-25 10:18 20.6
2020-Oct-25 10:13 20.6
2020-Oct-25 10:07 20.6
2020-Oct-25 10:02 20.6
2020-Oct-25 09:57 20.6
2020-Oct-25 09:52 20.6
2020-Oct-25 09:47 20.6
2020-Oct-25 09:42 20.6
2020-Oct-25 09:37 20.6
2020-Oct-25 09:32 20.0
2020-Oct-25 09:27 20.6
2020-Oct-25 09:22 20.6
2020-Oct-25 09:17 20.0
2020-Oct-25 09:12 20.0
2020-Oct-25 09:08 20.6
2020-Oct-25 09:03 20.0
2020-Oct-25 08:57 20.0
2020-Oct-25 08:52 19.4
2020-Oct-25 08:47 19.4
2020-Oct-25 08:44 19.4
2020-Oct-25 08:37 19.4
2020-Oct-25 08:32 18.9
2020-Oct-25 08:27 18.9
2020-Oct-25 08:22 18.3
2020-Oct-25 08:17 18.3
2020-Oct-25 08:12 082 18.3
2020-Oct-25 08:07 082 18.3
2020-Oct-25 08:02 082 17.8
2020-Oct-25 07:57 110 17.8
2020-Oct-25 07:52 110 17.8
2020-Oct-25 07:47 091 17.8
2020-Oct-25 07:42 091 17.8
2020-Oct-25 07:37 091 17.8
2020-Oct-25 07:31 091 17.8
2020-Oct-25 07:26 141 17.8
2020-Oct-25 07:21 114 1 17.8
2020-Oct-25 07:16 114 17.8
2020-Oct-25 07:11 114 17.8
2020-Oct-25 07:06 114 17.8
2020-Oct-25 07:01 072 17.8
2020-Oct-25 06:56 072 17.2
2020-Oct-25 06:51 072 17.2
2020-Oct-25 06:46 072 16.7
2020-Oct-25 06:41 072 16.7
2020-Oct-25 06:36 072 16.7
2020-Oct-25 06:31 083 0 16.7
2020-Oct-25 06:26 128 16.7
2020-Oct-25 06:21 128 16.7
2020-Oct-25 06:16 128 16.7
2020-Oct-25 06:11 128 16.1
2020-Oct-25 06:06 128 16.7
2020-Oct-25 06:01 128 16.1
2020-Oct-25 05:56 128 16.1
2020-Oct-25 05:51 128 16.1
2020-Oct-25 05:46 128 16.1
2020-Oct-25 05:41 128 16.1
2020-Oct-25 05:36 128 16.1
2020-Oct-25 05:31 128 16.1
2020-Oct-25 05:26 128 16.1
2020-Oct-25 05:21 128 16.1
2020-Oct-25 05:16 128 16.1
2020-Oct-25 05:11 128 16.1
2020-Oct-25 05:06 128 15.6
2020-Oct-25 05:00 128 15.6
2020-Oct-25 04:55 128 15.6
2020-Oct-25 04:50 128 16.1
2020-Oct-25 04:45 128 15.6
2020-Oct-25 04:40 128 15.6
2020-Oct-25 04:35 128 15.6
2020-Oct-25 04:30 128 15.6
2020-Oct-25 04:25 110 15.6
2020-Oct-25 04:20 110 15.6
2020-Oct-25 04:15 110 15.6
2020-Oct-25 04:10 110 16.1
2020-Oct-25 04:05 110 0 16.1
2020-Oct-25 04:00 072 0 16.1
2020-Oct-25 03:55 068 15.6
2020-Oct-25 03:50 111 15.6
2020-Oct-25 03:45 111 15.6
2020-Oct-25 03:40 111 1 16.1
2020-Oct-25 03:35 307 0 16.1
2020-Oct-25 03:30 090 0 16.1
2020-Oct-25 03:25 073 16.1
2020-Oct-25 03:20 073 16.1
2020-Oct-25 03:15 086 16.1
2020-Oct-25 03:10 086 16.1
2020-Oct-25 03:05 114 16.1
2020-Oct-25 03:00 110 15.6
2020-Oct-25 02:55 110 15.6
2020-Oct-25 02:50 110 15.6
2020-Oct-25 02:40 232 16.1
2020-Oct-25 02:35 232 15.6
2020-Oct-25 02:30 232 15.6
2020-Oct-25 02:25 232 15.6
2020-Oct-25 02:20 232 15.6
2020-Oct-25 02:14 232 15.6
2020-Oct-25 02:10 232 15.6
2020-Oct-25 02:04 232 16.1
2020-Oct-25 01:59 232 15.6
2020-Oct-25 01:54 232 15.6
2020-Oct-25 01:49 232 15.6
2020-Oct-25 01:44 232 15.6
2020-Oct-25 01:39 232 15.6
2020-Oct-25 01:34 232 15.6
2020-Oct-25 01:29 232 15.6
2020-Oct-25 01:24 232 16.1
2020-Oct-25 01:19 232 16.1
2020-Oct-25 01:14 232 16.1
2020-Oct-25 01:09 232 16.1
2020-Oct-25 01:04 232 16.7
2020-Oct-25 00:59 232 16.7
2020-Oct-25 00:54 232 16.7
2020-Oct-25 00:49 232 16.7
2020-Oct-25 00:44 232 16.7
2020-Oct-25 00:39 232 17.2
2020-Oct-25 00:34 232 17.2
2020-Oct-25 00:29 232 17.2
2020-Oct-25 00:24 232 17.2
2020-Oct-25 00:19 232 17.2
2020-Oct-25 00:14 232 17.2
2020-Oct-25 00:09 232 17.2
2020-Oct-25 00:04 232 17.2
2020-Oct-24 23:59 232 17.2
2020-Oct-24 23:54 232 17.2
2020-Oct-24 23:48 232 17.2
2020-Oct-24 23:43 232 17.2
2020-Oct-24 23:38 232 17.2
2020-Oct-24 23:33 232 17.2
2020-Oct-24 23:28 232 16.7
2020-Oct-24 23:24 232 16.7
2020-Oct-24 23:18 232 16.7
2020-Oct-24 23:13 232 16.7
2020-Oct-24 23:08 232 16.1
2020-Oct-24 23:03 232 16.1
2020-Oct-24 22:58 232 16.7
2020-Oct-24 22:53 232 16.7
2020-Oct-24 22:48 232 16.7
2020-Oct-24 22:43 232 16.7
2020-Oct-24 22:38 232 16.7
2020-Oct-24 22:33 232 16.7
2020-Oct-24 22:28 232 16.7
2020-Oct-24 22:23 232 16.7
2020-Oct-24 22:18 232 16.7
2020-Oct-24 22:13 232 16.7
2020-Oct-24 22:08 232 16.7
2020-Oct-24 22:03 232 16.7
2020-Oct-24 21:58 232 17.2
2020-Oct-24 21:53 232 17.2
2020-Oct-24 21:48 232 17.8
2020-Oct-24 21:43 232 17.8
2020-Oct-24 21:38 232 17.8
2020-Oct-24 21:33 232 17.8
2020-Oct-24 21:28 232 17.8
2020-Oct-24 21:23 232 17.8
2020-Oct-24 21:18 232 17.8
2020-Oct-24 21:12 232 17.8
2020-Oct-24 21:07 232 17.8
2020-Oct-24 21:02 232 17.8
2020-Oct-24 20:57 232 17.8
2020-Oct-24 20:52 232 17.8
2020-Oct-24 20:47 232 17.2
2020-Oct-24 20:42 232 17.2
2020-Oct-24 20:37 232 17.2
2020-Oct-24 20:32 232 17.2
2020-Oct-24 20:27 232 17.8
2020-Oct-24 20:22 232 17.8
2020-Oct-24 20:17 232 17.8
2020-Oct-24 20:12 232 17.8
2020-Oct-24 20:07 232 17.8
2020-Oct-24 20:02 232 17.8
2020-Oct-24 19:57 232 17.8
2020-Oct-24 19:52 232 17.8
2020-Oct-24 19:47 232 17.8
2020-Oct-24 19:42 232 17.8
2020-Oct-24 19:37 232 17.8
2020-Oct-24 19:32 232 17.8
2020-Oct-24 19:27 232 17.8
2020-Oct-24 19:22 232 17.8
2020-Oct-24 19:17 232 17.8
2020-Oct-24 19:12 232 17.8
2020-Oct-24 19:07 232 18.3
2020-Oct-24 19:02 232 17.8
2020-Oct-24 18:57 232 18.3
2020-Oct-24 18:52 232 18.9
2020-Oct-24 18:47 232 18.3
2020-Oct-24 18:42 232 18.9
2020-Oct-24 18:37 232 18.9
2020-Oct-24 18:31 232 18.9
2020-Oct-24 18:26 232 18.9
2020-Oct-24 18:21 232 18.3
2020-Oct-24 18:16 232 18.9
2020-Oct-24 18:11 232 18.9
2020-Oct-24 18:06 232 18.3
2020-Oct-24 18:01 232 18.9
2020-Oct-24 17:56 232 18.9
2020-Oct-24 17:51 232 18.9
2020-Oct-24 17:46 232 18.9
2020-Oct-24 17:41 232 18.9
2020-Oct-24 17:36 232 18.9
2020-Oct-24 17:31 232 18.9
2020-Oct-24 17:26 232 18.9
2020-Oct-24 17:21 232 18.9
2020-Oct-24 17:16 232 19.4
2020-Oct-24 17:11 232 19.4
2020-Oct-24 17:06 232 19.4
2020-Oct-24 17:01 232 19.4
2020-Oct-24 16:56 232 19.4
2020-Oct-24 16:51 232 19.4
2020-Oct-24 16:46 232 19.4
2020-Oct-24 16:41 232 19.4
2020-Oct-24 16:36 232 19.4
2020-Oct-24 16:31 232 19.4
2020-Oct-24 16:26 232 19.4
2020-Oct-24 16:21 232 20.0
2020-Oct-24 16:16 232 20.0
2020-Oct-24 16:11 232 20.0
2020-Oct-24 16:06 232 20.0
2020-Oct-24 16:00 232 20.0
2020-Oct-24 15:55 232 20.0
2020-Oct-24 15:50 232 20.6
2020-Oct-24 15:45 232 20.6
2020-Oct-24 15:40 232 20.6
2020-Oct-24 15:35 232 20.6
2020-Oct-24 15:30 232 20.6
2020-Oct-24 15:25 232 20.6
2020-Oct-24 15:20 232 20.6
2020-Oct-24 15:15 232 20.6
2020-Oct-24 15:13 242 1 20.6
2020-Oct-24 15:05 232 20.6
2020-Oct-24 15:00 232 20.6
2020-Oct-24 14:55 232 20.6
2020-Oct-24 14:50 232 20.6
2020-Oct-24 14:45 232 20.6
2020-Oct-24 14:40 232 20.6
2020-Oct-24 14:35 232 20.6
2020-Oct-24 14:30 232 20.6
2020-Oct-24 14:25 232 21.1
2020-Oct-24 14:20 207 0 21.1
2020-Oct-24 14:15 252 21.1
2020-Oct-24 14:10 252 0 21.1
2020-Oct-24 14:00 219 1 21.1
2020-Oct-24 13:55 233 21.1
2020-Oct-24 13:50 233 21.7
2020-Oct-24 13:40 201 0 21.1
2020-Oct-24 13:35 245 21.1
2020-Oct-24 13:30 252 21.1
2020-Oct-24 13:25 308 1 21.7
2020-Oct-24 13:20 270 0 gusting 2 21.7
2020-Oct-24 13:14 218 21.7
2020-Oct-24 13:09 218 21.7
2020-Oct-24 13:04 243 2 21.7
2020-Oct-24 12:59 252 2 21.7
2020-Oct-24 12:54 224 21.7
2020-Oct-24 12:49 214 0 21.7
2020-Oct-24 12:44 219 21.7
2020-Oct-24 12:39 219 2 21.7
2020-Oct-24 12:34 248 21.7
2020-Oct-24 12:29 284 21.7
2020-Oct-24 12:24 284 2 21.7
2020-Oct-24 12:19 239 0 gusting 2 21.7
2020-Oct-24 12:14 214 0 21.7
2020-Oct-24 12:09 207 0 21.7
2020-Oct-24 12:04 278 0 gusting 3 21.7
2020-Oct-24 11:59 239 21.7
2020-Oct-24 11:54 235 1 22.2
2020-Oct-24 11:49 177 1 21.7
2020-Oct-24 11:44 233 0 21.7
2020-Oct-24 11:39 187 21.7
2020-Oct-24 11:34 181 21.7
2020-Oct-24 11:29 205 21.7
2020-Oct-24 11:24 205 0 21.7
2020-Oct-24 11:19 193 0 21.7
2020-Oct-24 11:14 235 0 21.7
2020-Oct-24 11:09 267 21.7
2020-Oct-24 11:04 193 21.7
2020-Oct-24 10:59 228 21.1
2020-Oct-24 10:53 173 21.1
2020-Oct-24 10:48 222 21.1
2020-Oct-24 10:43 222 21.1
2020-Oct-24 10:38 215 21.1
2020-Oct-24 10:33 215 21.1
2020-Oct-24 10:28 262 21.1
2020-Oct-24 10:23 262 21.1
2020-Oct-24 10:18 262 21.1
2020-Oct-24 10:13 089 20.6
2020-Oct-24 10:08 089 20.6
2020-Oct-24 10:03 089 20.6
2020-Oct-24 09:58 089 20.6
2020-Oct-24 09:53 089 20.6
2020-Oct-24 09:48 089 20.6
2020-Oct-24 09:43 089 20.6
2020-Oct-24 09:38 194 1 20.6
2020-Oct-24 09:33 229 20.6
2020-Oct-24 09:28 238 20.6
2020-Oct-24 09:23 242 1 20.6
2020-Oct-24 09:18 217 20.6
2020-Oct-24 09:13 226 20.6
2020-Oct-24 09:08 212 20.6
2020-Oct-24 09:03 219 20.0